Grand Island, NY (14072)

8:29 AM EDT on August 27, 2016 (GMT -0400)
Radio KF2XN | | Change Station

Elev 597 ft 43.04 °N, 78.95 °W | Updated 7 minutes ago

Mostly Cloudy
Mostly Cloudy
69.5 °F
Feels Like 69.5 °F
N
0.0
Wind Variable Wind from East
Gusts 0.0 mph

Today
High -- | Low -- °F
--% Chance of Precip.
Yesterday
High -- | Low -- °F
Precip. -- in
Pressure 30.21 in
Visibility 10.0 miles
Clouds Few 12000 ft
Few 18000 ft
Mostly Cloudy 25000 ft
Dew Point 65 °F
Humidity 85%
Rainfall 0.00 in
Snow Depth Not available.
6:35 AM 7:58 PM
Waning Crescent, 25% visible
METAR KIAG 271153Z 00000KT 10SM FEW120 FEW180 BKN250 19/16 A3022 RMK AO2 SLP229 T01940161 10200 20167 51011
Pressure 30.21 in
Visibility 10.0 miles
Clouds Few 12000 ft
Few 18000 ft
Mostly Cloudy 25000 ft
Dew Point 65 °F
Humidity 85%
Rainfall 0.00 in
Snow Depth Not available.
6:35 AM 7:58 PM
Waning Crescent, 25% visible
METAR KIAG 271153Z 00000KT 10SM FEW120 FEW180 BKN250 19/16 A3022 RMK AO2 SLP229 T01940161 10200 20167 51011

10-Day Weather Forecast

Almanac

Astronomy

Aug. 27, 2016 Rise Set
Actual Time
Civil Twilight
Nautical Twilight
Astronomical Twilight
Moon
Length of Visible Light
Length of Day
Tomorrow will be .
, % of the Moon is Illuminated

Today's Extremes

State Highs State Lows

Community

WunderPhotos

Upload Photos

1,935,325 photos uploaded!

WunderBlog® & News

Nearby

Air Quality

  Air Quality AQ Index Pollutant
Not available.

Snow Depth

Station Depth Elevation

Earthquake Activity

City Distance Mag. Time & Date
Minimum magnitude displayed is 2.5.

Coastal Water Temperatures

Place Temperature

Stations

Nearby Weather Stations

Station Location Temp. Windchill Dew Point Humidity Wind Precip. Elev Updated Type
                   

Watches & Warnings

There are currently no watches in effect.